sim
Sign-in with your pilot id or email,
or register
Callsign
Passwort

Schedule Details

Flight Number: OEO6460
Departure: Zurich Airport (LSZH) at 08:00
Arrival: Mumbai Chhatrapati Shivaji International Airport (VABB) at 16:15

Weather Information
Getting current METAR information for LSZH 191850Z VRB02KT 9999 -SHRA FEW008 FEW025TCU BKN048 17/16 Q1020 TEMPO 4500 SHRA
Getting current METAR information for VABB 191900Z 27007KT 3500 HZ FEW020 SCT025 28/25 Q1010 BECMG 3000 HZ

Schedule Frequency

Route Map